Time;durP1;ratioP1;P1;durP2;ratioP2;P2;SDS_P1;SDS_P2;PMS_P1;PMS_P2;Temp;Humidity;BMP_temperature;BMP_pressure;BME280_temperature;BME280_humidity;BME280_pressure;Samples;Min_cycle;Max_cycle;Signal;HPM_P1;HPM_P2
2021/12/02 00:01:09;;;;;;;3.50;1.13;;;;;;;5.19;100.00;93017.44;4924618;29;20023;-92
2021/12/02 00:03:35;;;;;;;6.93;1.08;;;;;;;5.19;100.00;93014.06;4924319;29;20039;-92
2021/12/02 00:06:02;;;;;;;5.40;0.93;;;;;;;5.27;100.00;93013.53;4924534;29;20023;-92
2021/12/02 00:08:28;;;;;;;3.97;1.73;;;;;;;5.30;100.00;93018.19;4908834;29;20433;-92
2021/12/02 00:11:01;;;;;;;3.42;1.17;;;;;;;5.29;100.00;92997.66;4908602;29;20028;-93
2021/12/02 00:13:29;;;;;;;1.38;1.00;;;;;;;5.28;100.00;93002.09;4908760;29;20576;-92
2021/12/02 00:21:05;;;;;;;2.25;1.20;;;;;;;5.21;100.00;92997.19;4924887;29;20044;-92
2021/12/02 00:23:45;;;;;;;3.53;1.20;;;;;;;5.09;100.00;92994.13;4910327;29;20035;-92
2021/12/02 00:26:17;;;;;;;3.17;1.38;;;;;;;5.41;100.00;92994.75;4924168;29;20024;-91
2021/12/02 00:28:43;;;;;;;2.88;1.30;;;;;;;5.16;100.00;92986.81;4923947;29;20430;-92
2021/12/02 00:31:16;;;;;;;6.43;2.30;;;;;;;5.30;100.00;92979.22;4908201;29;20130;-92
2021/12/02 00:33:52;;;;;;;7.72;4.40;;;;;;;5.15;100.00;92977.47;4923857;29;20034;-92
2021/12/02 00:36:20;;;;;;;9.38;3.10;;;;;;;4.85;100.00;92971.38;4923717;29;20027;-93
2021/12/02 00:38:47;;;;;;;211.05;15.63;;;;;;;4.39;100.00;92980.81;4923621;29;20038;-92
2021/12/02 00:41:17;;;;;;;12.55;6.20;;;;;;;4.22;100.00;92967.38;4907697;29;20039;-92
2021/12/02 00:43:43;;;;;;;20.98;10.32;;;;;;;4.07;100.00;92966.34;4907818;29;20074;-92
2021/12/02 00:46:11;;;;;;;16.20;9.20;;;;;;;4.10;100.00;92967.66;4923679;29;20341;-92
2021/12/02 00:48:37;;;;;;;32.42;15.63;;;;;;;4.11;100.00;92953.66;4923404;29;20038;-91
2021/12/02 00:51:04;;;;;;;28.73;15.25;;;;;;;4.00;100.00;92957.28;4940596;29;20501;-91
2021/12/02 00:53:31;;;;;;;38.45;17.40;;;;;;;3.76;100.00;92965.56;4923407;29;20059;-92
2021/12/02 00:56:03;;;;;;;13.88;7.63;;;;;;;4.15;100.00;92956.47;4907697;29;20031;-92
2021/12/02 00:58:30;;;;;;;20.25;9.02;;;;;;;4.16;100.00;92966.59;4939105;29;20062;-91
2021/12/02 01:00:56;;;;;;;15.15;8.43;;;;;;;4.17;100.00;92957.03;4923200;29;20039;-91
2021/12/02 01:03:22;;;;;;;11.05;5.57;;;;;;;4.36;100.00;92958.03;4923362;29;20039;-92
2021/12/02 01:05:48;;;;;;;11.00;4.90;;;;;;;4.43;100.00;92960.34;4939076;29;20070;-91
2021/12/02 01:08:14;;;;;;;10.10;5.35;;;;;;;4.59;100.00;92968.88;4939334;29;20036;-92
2021/12/02 01:10:40;;;;;;;15.80;8.20;;;;;;;4.61;100.00;92961.59;4907394;29;20035;-92
2021/12/02 01:13:06;;;;;;;12.02;6.97;;;;;;;4.81;100.00;92965.94;4907505;29;20031;-91
2021/12/02 01:15:32;;;;;;;14.02;7.30;;;;;;;4.51;100.00;92964.22;4907421;29;20588;-92
2021/12/02 01:17:57;;;;;;;11.55;6.40;;;;;;;4.44;100.00;92950.72;4923091;29;20032;-92
2021/12/02 01:20:23;;;;;;;24.40;8.23;;;;;;;4.39;100.00;92946.34;4907399;29;20536;-92
2021/12/02 01:22:49;;;;;;;14.35;8.23;;;;;;;4.44;100.00;92950.72;4907188;29;20032;-91
2021/12/02 01:25:18;;;;;;;63.97;13.20;;;;;;;4.17;100.00;92938.88;4923129;29;20027;-92
2021/12/02 01:27:47;;;;;;;19.35;10.27;;;;;;;4.21;100.00;92943.25;4922404;29;20102;-92
2021/12/02 01:30:13;;;;;;;154.15;16.55;;;;;;;4.15;100.00;92943.53;4922880;29;20031;-92
2021/12/02 01:32:39;;;;;;;18.83;8.80;;;;;;;4.24;100.00;92939.38;4939126;29;20443;-92
2021/12/02 01:35:05;;;;;;;567.25;34.92;;;;;;;4.15;100.00;92933.16;4907201;29;20437;-92
2021/12/02 01:37:31;;;;;;;32.20;13.25;;;;;;;4.15;100.00;92936.53;4907391;29;20524;-92
2021/12/02 01:39:57;;;;;;;71.05;20.75;;;;;;;3.72;100.00;92931.63;4907200;29;20030;-91
2021/12/02 01:42:26;;;;;;;16.65;6.35;;;;;;;4.22;100.00;92933.69;4906930;29;20437;-92
2021/12/02 01:44:56;;;;;;;176.60;33.70;;;;;;;3.89;100.00;92933.22;4907317;29;20039;-93
2021/12/02 01:47:29;;;;;;;68.97;24.42;;;;;;;3.97;100.00;92932.66;4907324;29;20121;-92
2021/12/02 01:50:00;;;;;;;36.38;19.02;;;;;;;3.81;100.00;92924.91;4907315;29;20050;-92
2021/12/02 01:52:30;;;;;;;60.92;24.45;;;;;;;3.87;100.00;92923.09;4923218;29;20028;-92
2021/12/02 01:55:11;;;;;;;51.70;26.33;;;;;;;3.71;100.00;92916.38;4907145;29;20035;-92
2021/12/02 01:57:41;;;;;;;46.45;23.67;;;;;;;3.64;100.00;92914.03;4922493;29;20027;-92
2021/12/02 02:00:10;;;;;;;43.92;24.27;;;;;;;3.71;100.00;92908.59;4907313;29;20031;-91
2021/12/02 02:02:37;;;;;;;44.20;24.52;;;;;;;3.42;100.00;92906.53;4922348;29;20023;-92
2021/12/02 02:05:07;;;;;;;43.80;25.05;;;;;;;3.43;100.00;92914.00;4922436;29;20031;-92
2021/12/02 02:07:33;;;;;;;45.70;23.52;;;;;;;3.78;100.00;92916.88;4907346;29;20027;-91
2021/12/02 02:09:59;;;;;;;51.55;26.38;;;;;;;3.67;100.00;92900.56;4906944;29;20028;-92
2021/12/02 02:12:25;;;;;;;116.45;30.08;;;;;;;3.49;100.00;92900.06;4907017;29;20062;-92
2021/12/02 02:14:51;;;;;;;54.42;26.80;;;;;;;3.50;100.00;92900.81;4906938;29;20027;-91
2021/12/02 02:19:42;;;;;;;69.65;29.00;;;;;;;3.33;100.00;92911.44;4922444;29;20030;-91
2021/12/02 02:22:08;;;;;;;54.13;28.35;;;;;;;3.46;100.00;92904.97;4922566;29;20126;-92
2021/12/02 02:24:34;;;;;;;57.90;30.67;;;;;;;3.27;100.00;92894.31;4906518;29;20533;-91
2021/12/02 02:26:59;;;;;;;52.88;28.95;;;;;;;3.39;100.00;92892.28;4906817;29;20043;-92
2021/12/02 02:29:25;;;;;;;61.85;31.38;;;;;;;3.41;100.00;92902.38;4922266;29;20083;-92
2021/12/02 02:32:04;;;;;;;54.38;29.90;;;;;;;3.51;100.00;92903.16;4906638;29;20035;-92
2021/12/02 02:34:29;;;;;;;54.05;27.90;;;;;;;3.49;100.00;92904.44;4938394;29;20413;-92
2021/12/02 02:36:57;;;;;;;102.10;27.75;;;;;;;3.68;100.00;92892.53;4906696;29;20087;-92
2021/12/02 02:39:23;;;;;;;164.55;35.60;;;;;;;3.42;100.00;92896.16;4925302;29;20047;-92
2021/12/02 02:41:56;;;;;;;60.25;32.70;;;;;;;3.35;100.00;92875.72;4910080;29;20461;-91
2021/12/02 02:44:23;;;;;;;68.35;32.40;;;;;;;3.31;100.00;92870.25;4910993;29;20122;-91
2021/12/02 02:46:48;;;;;;;238.43;42.17;;;;;;;3.38;100.00;92883.75;4910113;29;20126;-92
2021/12/02 02:49:14;;;;;;;85.85;34.40;;;;;;;3.26;100.00;92878.03;4925665;29;20120;-91
2021/12/02 02:51:43;;;;;;;74.28;33.47;;;;;;;3.29;100.00;92884.50;4909998;29;20028;-92
2021/12/02 02:54:10;;;;;;;100.50;38.95;;;;;;;3.35;100.00;92881.66;4909884;29;20039;-91
2021/12/02 02:56:43;;;;;;;126.43;36.67;;;;;;;3.39;100.00;92892.28;4910052;29;20177;-91
2021/12/02 03:02:32;;;;;;;152.02;38.47;;;;;;;3.28;100.00;92885.53;4908567;29;20027;-91
2021/12/02 03:07:43;;;;;;;570.15;58.22;;;;;;;3.07;100.00;92878.50;4941139;29;20112;-92
2021/12/02 03:12:58;;;;;;;628.70;63.33;;;;;;;2.82;100.00;92874.06;4927728;29;20524;-91
2021/12/02 03:17:49;;;;;;;274.17;49.67;;;;;;;2.81;100.00;92872.50;4925435;29;20035;-92
2021/12/02 03:20:15;;;;;;;1085.00;86.88;;;;;;;2.85;100.00;92870.19;4909781;29;20333;-91
2021/12/02 03:22:41;;;;;;;272.60;45.95;;;;;;;2.96;100.00;92872.53;4909377;29;20043;-92
2021/12/02 03:25:08;;;;;;;104.78;40.35;;;;;;;3.06;100.00;92864.00;4925276;29;20496;-92
2021/12/02 03:27:34;;;;;;;72.60;36.90;;;;;;;3.38;100.00;92870.00;4909268;29;20098;-91
2021/12/02 03:29:59;;;;;;;80.35;38.75;;;;;;;3.14;100.00;92864.56;4909432;29;20036;-92
2021/12/02 03:32:25;;;;;;;87.35;39.65;;;;;;;3.02;100.00;92872.56;4909448;29;20036;-91
2021/12/02 03:34:51;;;;;;;76.22;36.97;;;;;;;3.15;100.00;92866.88;4924984;29;20034;-93
2021/12/02 03:37:17;;;;;;;137.02;43.15;;;;;;;3.11;100.00;92865.84;4924893;29;20035;-92
2021/12/02 03:39:43;;;;;;;135.02;42.55;;;;;;;3.03;100.00;92866.38;4909560;29;20032;-92
2021/12/02 03:42:09;;;;;;;80.88;39.08;;;;;;;3.28;100.00;92864.81;4924754;29;20027;-91
2021/12/02 03:44:35;;;;;;;99.70;40.75;;;;;;;3.20;100.00;92859.13;4924546;29;20047;-91
2021/12/02 03:47:03;;;;;;;90.03;41.80;;;;;;;3.17;100.00;92861.44;4909045;29;20062;-92
2021/12/02 03:49:30;;;;;;;83.03;40.20;;;;;;;3.41;100.00;92860.94;4908662;29;20039;-92
2021/12/02 03:51:56;;;;;;;104.20;40.03;;;;;;;3.44;100.00;92860.44;4924710;29;20070;-92
2021/12/02 03:54:22;;;;;;;281.55;43.60;;;;;;;3.47;100.00;92867.66;4924499;29;20032;-92
2021/12/02 03:56:47;;;;;;;80.75;34.55;;;;;;;3.51;100.00;92866.91;4908694;29;20031;-92
2021/12/02 03:59:13;;;;;;;58.47;29.65;;;;;;;3.56;100.00;92860.16;4908807;29;20433;-91
2021/12/02 04:01:39;;;;;;;73.93;35.92;;;;;;;3.38;100.00;92860.44;4908906;29;20457;-93
2021/12/02 04:04:05;;;;;;;711.40;60.42;;;;;;;3.26;100.00;92854.72;4924474;29;20035;-92
2021/12/02 04:06:30;;;;;;;383.63;51.47;;;;;;;3.14;100.00;92851.63;4908577;29;20086;-93
2021/12/02 04:09:04;;;;;;;83.90;39.60;;;;;;;3.16;100.00;92846.97;4908601;29;20042;-92
2021/12/02 04:11:40;;;;;;;79.32;36.70;;;;;;;3.32;100.00;92843.34;4909892;29;20049;-92
2021/12/02 04:14:21;;;;;;;143.30;38.00;;;;;;;3.40;100.00;92852.41;4909923;29;20115;-92
2021/12/02 04:16:54;;;;;;;120.75;37.28;;;;;;;3.39;100.00;92850.84;4910471;29;20429;-91
2021/12/02 04:19:22;;;;;;;60.58;32.72;;;;;;;3.54;100.00;92856.00;4904529;29;20032;-92
2021/12/02 04:21:47;;;;;;;59.10;30.80;;;;;;;3.51;100.00;92842.81;4905117;29;20063;-92
2021/12/02 04:24:13;;;;;;;63.28;32.80;;;;;;;3.70;100.00;92844.88;4905148;29;20060;-92
2021/12/02 04:26:40;;;;;;;67.55;34.22;;;;;;;3.62;100.00;92852.13;4905026;29;20469;-92
2021/12/02 04:29:05;;;;;;;63.53;32.67;;;;;;;3.53;100.00;92853.69;4920674;29;20031;-91
2021/12/02 04:31:31;;;;;;;57.70;31.95;;;;;;;3.73;100.00;92855.50;4905032;29;20126;-91
2021/12/02 04:33:56;;;;;;;731.30;58.90;;;;;;;3.49;100.00;92834.53;4904914;29;20501;-92
2021/12/02 04:36:22;;;;;;;258.20;42.15;;;;;;;3.27;100.00;92834.78;4920490;29;20032;-91
2021/12/02 04:38:47;;;;;;;117.25;36.38;;;;;;;3.33;100.00;92839.72;4904878;29;20434;-92
2021/12/02 04:41:15;;;;;;;342.13;46.22;;;;;;;3.31;100.00;92841.03;4904854;29;20047;-91
2021/12/02 04:43:41;;;;;;;370.27;41.50;;;;;;;3.35;100.00;92844.63;4904450;29;20028;-92
2021/12/02 04:46:07;;;;;;;211.27;36.13;;;;;;;3.50;100.00;92836.06;4904744;29;20086;-92
2021/12/02 04:48:32;;;;;;;66.75;29.83;;;;;;;3.47;100.00;92837.38;4920257;29;20450;-91
2021/12/02 04:50:58;;;;;;;385.38;38.80;;;;;;;3.35;100.00;92839.47;4904762;29;20039;-92
2021/12/02 04:53:24;;;;;;;163.57;30.75;;;;;;;3.44;100.00;92840.47;4920304;29;20024;-93
2021/12/02 04:55:49;;;;;;;83.15;29.90;;;;;;;3.29;100.00;92849.03;4920353;29;20027;-91
2021/12/02 04:58:15;;;;;;;105.82;30.85;;;;;;;3.23;100.00;92834.56;4904724;29;20413;-92
2021/12/02 05:00:40;;;;;;;52.50;25.83;;;;;;;3.34;100.00;92833.50;4920384;29;20394;-93
2021/12/02 05:03:06;;;;;;;43.83;20.55;;;;;;;3.43;100.00;92833.75;4920026;29;20114;-92
2021/12/02 05:05:33;;;;;;;39.33;19.20;;;;;;;3.56;100.00;92829.88;4920130;29;20032;-92
2021/12/02 05:08:00;;;;;;;52.08;21.88;;;;;;;3.58;100.00;92816.63;4925245;29;20028;-91
2021/12/02 05:10:26;;;;;;;43.63;19.98;;;;;;;3.72;100.00;92816.91;4907468;29;20031;-92
2021/12/02 05:12:51;;;;;;;42.50;20.92;;;;;;;3.47;100.00;92821.06;4907734;29;20023;-92
2021/12/02 05:15:17;;;;;;;44.45;20.55;;;;;;;3.65;100.00;92837.88;4907499;29;20058;-92
2021/12/02 05:17:42;;;;;;;48.72;21.30;;;;;;;3.52;100.00;92829.59;4923015;29;20031;-91
2021/12/02 05:20:09;;;;;;;40.20;19.08;;;;;;;3.60;100.00;92835.31;4907438;29;20039;-91
2021/12/02 05:22:34;;;;;;;41.45;19.63;;;;;;;3.54;100.00;92835.31;4922861;29;20063;-91
2021/12/02 05:25:00;;;;;;;43.38;21.67;;;;;;;3.53;100.00;92835.56;4907174;29;20109;-91
2021/12/02 05:27:25;;;;;;;47.00;21.52;;;;;;;3.60;100.00;92830.88;4907207;29;20094;-91
2021/12/02 05:29:51;;;;;;;47.17;22.13;;;;;;;3.41;100.00;92840.25;4907455;29;20118;-91
2021/12/02 05:32:16;;;;;;;74.40;24.10;;;;;;;3.24;100.00;92844.63;4922719;29;20035;-91
2021/12/02 05:34:46;;;;;;;881.25;72.07;;;;;;;3.12;100.00;92836.34;4922571;29;20054;-91
2021/12/02 05:37:12;;;;;;;214.57;31.55;;;;;;;2.92;100.00;92837.09;4907992;29;20028;-92
2021/12/02 05:39:38;;;;;;;731.15;54.22;;;;;;;2.75;100.00;92837.34;4907126;29;20023;-92
2021/12/02 05:42:03;;;;;;;70.65;25.80;;;;;;;2.84;100.00;92848.72;4907268;29;20027;-92
2021/12/02 05:44:29;;;;;;;448.77;42.50;;;;;;;2.95;100.00;92854.72;4907078;29;20038;-91
2021/12/02 05:46:54;;;;;;;1492.10;99.95;;;;;;;2.35;100.00;92850.66;4906943;29;20040;-91
2021/12/02 05:49:20;;;;;;;1081.15;84.90;;;;;;;2.10;100.00;92844.34;4907022;29;20024;-91
2021/12/02 05:51:46;;;;;;;1194.50;98.43;;;;;;;2.05;100.00;92852.09;4907329;29;20042;-92
2021/12/02 05:54:12;;;;;;;198.88;40.35;;;;;;;2.21;100.00;92852.91;4907099;29;20082;-92
2021/12/02 05:56:38;;;;;;;954.22;76.03;;;;;;;2.22;100.00;92844.16;4922543;29;20039;-92
2021/12/02 05:59:03;;;;;;;1064.25;88.85;;;;;;;2.16;100.00;92834.81;4938571;29;20082;-93
2021/12/02 06:01:29;;;;;;;796.53;69.32;;;;;;;2.15;100.00;92829.88;4907166;29;20031;-92
2021/12/02 06:03:54;;;;;;;365.10;44.22;;;;;;;2.30;100.00;92832.56;4922670;29;20434;-92
2021/12/02 06:06:23;;;;;;;1041.90;80.80;;;;;;;2.43;100.00;92831.31;4906899;29;20038;-93
2021/12/02 06:08:48;;;;;;;150.63;34.80;;;;;;;2.71;100.00;92831.88;4907751;29;20039;-92
2021/12/02 06:11:14;;;;;;;373.83;48.35;;;;;;;2.63;100.00;92835.75;4907306;29;20500;-92
2021/12/02 06:13:40;;;;;;;242.27;38.47;;;;;;;2.68;100.00;92832.41;4908921;29;20118;-93
2021/12/02 06:16:06;;;;;;;1315.65;93.13;;;;;;;2.28;100.00;92818.31;4910874;29;20042;-92
2021/12/02 06:18:31;;;;;;;1292.63;109.53;;;;;;;1.98;100.00;92818.72;4910704;29;20118;-92
2021/12/02 06:20:57;;;;;;;405.58;44.63;;;;;;;2.19;100.00;92826.56;4910882;29;20105;-92
2021/12/02 06:23:23;;;;;;;61.83;29.50;;;;;;;2.44;100.00;92838.03;4925904;29;20031;-92
2021/12/02 06:25:49;;;;;;;441.42;51.33;;;;;;;2.52;100.00;92840.13;4926001;29;20031;-92
2021/12/02 06:28:18;;;;;;;51.65;28.17;;;;;;;2.61;100.00;92843.00;4909542;29;20054;-92
2021/12/02 06:30:44;;;;;;;779.67;61.13;;;;;;;2.19;100.00;92834.31;4926012;29;20031;-93
2021/12/02 06:33:10;;;;;;;339.17;38.67;;;;;;;2.16;100.00;92837.41;4926029;29;20099;-92
2021/12/02 06:35:35;;;;;;;136.20;29.13;;;;;;;2.24;100.00;92830.97;4910385;29;20126;-92
2021/12/02 06:38:01;;;;;;;182.63;30.58;;;;;;;2.27;100.00;92840.78;4910619;29;20035;-92
2021/12/02 06:40:27;;;;;;;61.80;27.67;;;;;;;2.36;100.00;92851.41;4926340;29;20027;-91
2021/12/02 06:42:52;;;;;;;53.30;27.38;;;;;;;2.78;100.00;92842.75;4925483;29;20027;-91
2021/12/02 06:45:19;;;;;;;201.27;29.63;;;;;;;2.93;100.00;92833.47;4910212;29;20031;-92
2021/12/02 06:47:45;;;;;;;552.63;44.50;;;;;;;2.85;100.00;92834.75;4910546;29;20027;-92
2021/12/02 06:50:16;;;;;;;54.83;23.63;;;;;;;3.07;100.00;92833.75;4925805;29;20412;-92
2021/12/02 06:52:42;;;;;;;39.78;21.38;;;;;;;2.93;100.00;92829.09;4925897;29;20030;-92
2021/12/02 06:55:09;;;;;;;38.00;17.63;;;;;;;3.10;100.00;92830.66;4925908;29;20075;-91
2021/12/02 06:57:34;;;;;;;30.27;15.15;;;;;;;3.18;100.00;92840.50;4909956;29;20028;-91
2021/12/02 07:00:04;;;;;;;38.72;21.15;;;;;;;3.28;100.00;92833.75;4925505;29;20079;-93
2021/12/02 07:02:30;;;;;;;59.92;23.83;;;;;;;3.38;100.00;92826.78;4910378;29;20468;-92
2021/12/02 07:04:57;;;;;;;110.03;24.02;;;;;;;3.38;100.00;92831.97;4941674;29;20058;-92
2021/12/02 07:07:23;;;;;;;960.75;60.83;;;;;;;2.84;100.00;92830.63;4910074;29;20446;-92
2021/12/02 07:09:49;;;;;;;1734.03;108.50;;;;;;;2.78;100.00;92826.47;4909867;29;20369;-92
2021/12/02 07:12:29;;;;;;;718.80;53.72;;;;;;;2.78;100.00;92826.47;4909879;29;20035;-92
2021/12/02 07:14:54;;;;;;;39.55;22.15;;;;;;;2.68;100.00;92827.25;4910316;29;20345;-92
2021/12/02 07:17:20;;;;;;;260.20;28.67;;;;;;;2.68;100.00;92840.16;4910008;29;20034;-92
2021/12/02 07:19:45;;;;;;;387.92;34.50;;;;;;;2.66;100.00;92835.25;4909474;29;20036;-91
2021/12/02 07:22:11;;;;;;;1067.30;72.32;;;;;;;2.45;100.00;92843.97;4909530;29;20027;-92
2021/12/02 07:24:36;;;;;;;400.45;36.83;;;;;;;2.39;100.00;92850.94;4908216;29;20028;-92
2021/12/02 07:27:02;;;;;;;36.97;20.23;;;;;;;2.71;100.00;92862.94;4909799;29;20035;-92
2021/12/02 07:29:27;;;;;;;42.75;20.98;;;;;;;3.18;100.00;92866.38;4909379;29;20035;-92
2021/12/02 07:31:53;;;;;;;45.42;21.05;;;;;;;3.21;100.00;92860.69;4909418;29;20059;-93
2021/12/02 07:34:21;;;;;;;30.95;17.98;;;;;;;3.40;100.00;92862.75;4909228;29;20413;-92
2021/12/02 07:36:48;;;;;;;60.00;20.63;;;;;;;3.29;100.00;92858.59;4909467;29;20054;-92
2021/12/02 07:39:13;;;;;;;491.98;35.40;;;;;;;2.99;100.00;92858.31;4924927;29;20038;-92
2021/12/02 07:41:40;;;;;;;41.50;19.35;;;;;;;3.34;100.00;92867.16;4909308;29;20430;-92
2021/12/02 07:44:06;;;;;;;72.13;20.42;;;;;;;3.25;100.00;92861.72;4924588;29;20118;-92
2021/12/02 07:46:32;;;;;;;1497.45;83.05;;;;;;;3.03;100.00;92845.66;4924499;29;20111;-91
2021/12/02 07:48:58;;;;;;;776.45;52.75;;;;;;;2.81;100.00;92849.25;4924597;29;20070;-92
2021/12/02 07:51:28;;;;;;;37.05;21.35;;;;;;;3.20;100.00;92845.41;4908784;29;20078;-92
2021/12/02 07:53:54;;;;;;;182.45;24.55;;;;;;;3.43;100.00;92832.97;4924514;29;20066;-91
2021/12/02 07:56:21;;;;;;;310.35;34.33;;;;;;;3.67;100.00;92828.81;4908810;29;20035;-92
2021/12/02 07:58:47;;;;;;;304.85;29.30;;;;;;;3.57;100.00;92825.44;4908854;29;20074;-92
2021/12/02 08:01:48;;;;;;;428.75;34.45;;;;;;;3.39;100.00;92830.13;4940309;29;20036;-92
2021/12/02 08:04:13;;;;;;;125.50;22.42;;;;;;;3.43;100.00;92835.56;4924440;29;20054;-92
2021/12/02 08:06:39;;;;;;;49.00;19.75;;;;;;;3.40;100.00;92839.44;4924253;29;20027;-92
2021/12/02 08:09:06;;;;;;;42.80;20.60;;;;;;;3.54;100.00;92845.66;4908683;29;20504;-92
2021/12/02 08:11:32;;;;;;;1457.60;85.93;;;;;;;2.99;100.00;92836.84;4924441;29;20027;-92
2021/12/02 08:13:57;;;;;;;342.20;30.73;;;;;;;3.22;100.00;92838.94;4924168;29;20114;-93
2021/12/02 08:16:24;;;;;;;91.82;24.45;;;;;;;3.41;100.00;92841.00;4908631;29;20133;-92
2021/12/02 08:18:49;;;;;;;1381.20;102.57;;;;;;;2.51;100.00;92838.56;4924206;29;20038;-92
2021/12/02 08:21:15;;;;;;;1220.60;79.75;;;;;;;2.71;100.00;92844.03;4908498;29;20027;-92
2021/12/02 08:23:40;;;;;;;432.27;35.85;;;;;;;2.89;100.00;92858.31;4908205;29;20027;-92
2021/12/02 08:26:06;;;;;;;831.95;52.67;;;;;;;2.52;100.00;92850.47;4908801;29;20035;-91
2021/12/02 08:28:31;;;;;;;810.50;68.10;;;;;;;2.56;100.00;92842.19;4908391;29;20058;-91
2021/12/02 08:30:58;;;;;;;681.42;49.30;;;;;;;2.53;100.00;92841.69;4908472;29;20024;-93
2021/12/02 08:33:24;;;;;;;1066.93;89.57;;;;;;;2.43;100.00;92840.84;4908214;29;20024;-92
2021/12/02 08:35:49;;;;;;;138.07;28.88;;;;;;;2.72;100.00;92833.44;4907901;29;20031;-91
2021/12/02 08:38:18;;;;;;;490.23;46.65;;;;;;;3.03;100.00;92835.31;4908490;29;20027;-92
2021/12/02 08:40:46;;;;;;;122.43;26.05;;;;;;;3.51;100.00;92840.22;4908657;29;20083;-91
2021/12/02 08:43:13;;;;;;;286.70;32.67;;;;;;;3.25;100.00;92825.47;4923617;29;20505;-92
2021/12/02 08:45:41;;;;;;;622.15;44.05;;;;;;;3.22;100.00;92827.78;4907953;29;20326;-92
2021/12/02 08:48:07;;;;;;;128.32;25.00;;;;;;;3.27;100.00;92817.47;4908258;29;20325;-92
2021/12/02 08:53:55;;;;;;;31.73;15.90;;;;;;;3.58;100.00;92806.28;4940255;29;20073;-93
2021/12/02 08:56:20;;;;;;;83.50;23.63;;;;;;;3.73;100.00;92816.66;4923348;29;20081;-93
2021/12/02 08:58:46;;;;;;;34.67;18.35;;;;;;;3.67;100.00;92809.91;4923488;29;20114;-93
2021/12/02 09:01:11;;;;;;;38.50;20.05;;;;;;;3.84;100.00;92806.25;4923328;29;20050;-92
2021/12/02 09:03:38;;;;;;;41.75;20.75;;;;;;;3.99;100.00;92801.00;4907484;29;20027;-91
2021/12/02 09:06:08;;;;;;;118.20;21.95;;;;;;;3.96;100.00;92801.53;4907721;29;20440;-93
2021/12/02 09:08:34;;;;;;;25.70;13.50;;;;;;;4.07;100.00;92799.69;4908210;29;20032;-91
2021/12/02 09:11:00;;;;;;;36.83;18.48;;;;;;;4.55;100.00;92799.22;4907530;29;20352;-92
2021/12/02 09:13:25;;;;;;;33.08;18.23;;;;;;;4.90;100.00;92797.47;4907834;29;20023;-92
2021/12/02 09:15:51;;;;;;;29.35;16.90;;;;;;;5.12;100.00;92801.47;4907533;29;20032;-92
2021/12/02 09:18:16;;;;;;;26.85;14.80;;;;;;;4.96;100.00;92800.81;4907474;29;20438;-92
2021/12/02 09:20:43;;;;;;;25.05;14.82;;;;;;;5.09;100.00;92795.00;4907503;29;20028;-92
2021/12/02 09:23:08;;;;;;;23.08;13.80;;;;;;;5.34;100.00;92795.84;4922938;29;20060;-93
2021/12/02 09:25:34;;;;;;;23.65;13.32;;;;;;;5.16;100.00;92792.06;4907243;29;20027;-93
2021/12/02 09:28:00;;;;;;;22.40;14.00;;;;;;;4.74;100.00;92776.03;4923103;29;20034;-92
2021/12/02 09:30:25;;;;;;;21.83;12.65;;;;;;;5.16;100.00;92778.34;4922932;29;20036;-91
2021/12/02 09:32:51;;;;;;;20.73;11.77;;;;;;;5.14;100.00;92781.19;4907227;29;20406;-92
2021/12/02 09:35:16;;;;;;;18.70;10.73;;;;;;;5.22;100.00;92775.44;4923079;29;20081;-92
2021/12/02 09:37:42;;;;;;;16.17;9.43;;;;;;;5.64;100.00;92769.88;4907281;29;20027;-92
2021/12/02 09:40:09;;;;;;;16.70;8.65;;;;;;;5.62;100.00;92766.78;4939665;29;20039;-93
2021/12/02 09:42:35;;;;;;;14.25;8.18;;;;;;;5.62;100.00;92769.38;4907101;29;20441;-92
2021/12/02 09:45:02;;;;;;;10.82;6.97;;;;;;;6.05;100.00;92764.25;4906595;29;20036;-90
2021/12/02 09:47:33;;;;;;;12.68;7.75;;;;;;;6.00;100.00;92756.47;4922124;29;20028;-92
2021/12/02 09:50:04;;;;;;;12.15;7.40;;;;;;;6.24;100.00;92758.31;4939843;29;20314;-92
2021/12/02 09:52:36;;;;;;;12.32;6.97;;;;;;;6.33;100.00;92741.03;4907640;29;20030;-92
2021/12/02 09:55:08;;;;;;;9.73;5.85;;;;;;;6.71;100.00;92739.47;4923383;29;20023;-92
2021/12/02 09:57:38;;;;;;;8.57;5.30;;;;;;;6.64;100.00;92745.03;4907569;29;20390;-93
2021/12/02 10:00:06;;;;;;;8.55;5.10;;;;;;;6.53;100.00;92741.03;4923349;29;20384;-92
2021/12/02 10:02:39;;;;;;;6.95;4.45;;;;;;;6.43;100.00;92749.75;4906922;29;20445;-93
2021/12/02 10:05:07;;;;;;;8.43;4.97;;;;;;;6.61;100.00;92735.19;4908035;29;20373;-93
2021/12/02 10:07:41;;;;;;;8.65;5.25;;;;;;;6.90;100.00;92724.63;4907099;29;20047;-92
2021/12/02 10:12:37;;;;;;;7.32;4.82;;;;;;;7.13;100.00;92716.97;4922803;29;20024;-92
2021/12/02 10:15:09;;;;;;;7.55;4.75;;;;;;;7.62;100.00;92714.06;4922861;29;20024;-92
2021/12/02 10:26:09;;;;;;;8.02;5.18;;;;;;;7.05;100.00;92689.75;4917270;29;20051;-92
2021/12/02 10:28:41;;;;;;;8.02;4.75;;;;;;;7.66;100.00;92673.31;4906465;29;20032;-93
2021/12/02 10:31:07;;;;;;;5.88;3.63;;;;;;;8.12;100.00;92674.25;4907388;29;20055;-92
2021/12/02 10:33:34;;;;;;;6.25;3.42;;;;;;;7.46;100.00;92675.25;4922247;29;20031;-92
2021/12/02 10:36:02;;;;;;;7.53;5.00;;;;;;;8.38;100.00;92671.06;4906862;29;20027;-92
2021/12/02 10:38:40;;;;;;;6.72;4.60;;;;;;;8.17;100.00;92661.09;4922329;29;20024;-92
2021/12/02 10:41:08;;;;;;;10.15;6.05;;;;;;;7.98;100.00;92674.25;4906734;29;20054;-92
2021/12/02 10:43:34;;;;;;;9.25;5.18;;;;;;;8.19;100.00;92656.34;4938859;29;20032;-92
2021/12/02 10:46:16;;;;;;;7.18;4.35;;;;;;;8.63;100.00;92651.50;4906566;29;20032;-92
2021/12/02 10:48:49;;;;;;;12.15;5.03;;;;;;;8.68;100.00;92653.22;4906684;29;20084;-91
2021/12/02 10:51:33;;;;;;;9.60;5.57;;;;;;;8.96;100.00;92660.16;4922501;29;20075;-92
2021/12/02 10:54:00;;;;;;;69.28;10.98;;;;;;;8.41;100.00;92646.25;4938994;29;20028;-91
2021/12/02 10:56:33;;;;;;;13.65;8.75;;;;;;;8.41;100.00;92646.25;4922197;29;20038;-92
2021/12/02 10:59:22;;;;;;;15.07;9.18;;;;;;;7.57;100.00;92657.59;4907231;29;20396;-93
2021/12/02 11:01:48;;;;;;;16.40;9.35;;;;;;;8.06;100.00;92650.09;4925672;29;20434;-92
2021/12/02 11:04:14;;;;;;;17.50;9.15;;;;;;;8.04;100.00;92643.63;4909724;29;20039;-92
2021/12/02 11:06:47;;;;;;;15.23;8.75;;;;;;;7.75;100.00;92653.34;4925427;29;20059;-92
2021/12/02 11:09:24;;;;;;;17.90;9.68;;;;;;;7.03;100.00;92646.81;4909739;29;20118;-91
2021/12/02 11:12:12;;;;;;;14.55;9.23;;;;;;;7.42;100.00;92643.00;4925535;29;20058;-92
2021/12/02 11:14:50;;;;;;;18.13;10.35;;;;;;;7.57;100.00;92638.56;4909569;29;20433;-92
2021/12/02 11:17:16;;;;;;;16.95;9.60;;;;;;;6.91;100.00;92637.66;4909532;29;20099;-92
2021/12/02 11:19:47;;;;;;;19.60;10.10;;;;;;;7.05;100.00;92649.94;4909649;29;20071;-92
2021/12/02 11:22:16;;;;;;;16.95;10.18;;;;;;;6.55;100.00;92640.81;4925184;29;20039;-92
2021/12/02 11:24:42;;;;;;;20.65;12.18;;;;;;;6.90;100.00;92636.13;4940775;29;20036;-92
2021/12/02 11:27:14;;;;;;;24.98;13.98;;;;;;;7.11;100.00;92633.16;4909333;29;20038;-92
2021/12/02 11:29:52;;;;;;;425.40;28.42;;;;;;;5.96;100.00;92619.56;4941850;29;20035;-92
2021/12/02 11:32:31;;;;;;;26.05;14.82;;;;;;;6.87;100.00;92617.69;4925058;29;20031;-92
2021/12/02 11:35:05;;;;;;;43.53;16.65;;;;;;;6.33;100.00;92616.19;4909237;29;20491;-92
2021/12/02 11:37:30;;;;;;;;;;;;;;;6.67;100.00;92608.38;4925720;29;20054;-92
2021/12/02 11:39:58;;;;;;;29.00;15.40;;;;;;;6.40;100.00;92605.44;4908631;29;19914;-92
2021/12/02 11:42:25;;;;;;;36.63;16.75;;;;;;;6.24;100.00;92602.28;4905776;29;20345;-91
2021/12/02 11:44:50;;;;;;;953.35;49.97;;;;;;;5.54;100.00;92604.47;4905545;29;20036;-92
2021/12/02 11:47:16;;;;;;;512.42;32.92;;;;;;;5.44;100.00;92600.16;4905718;29;20086;-92
2021/12/02 11:49:42;;;;;;;521.42;42.33;;;;;;;4.71;100.00;92594.97;4919589;29;20140;-91
2021/12/02 11:52:08;;;;;;;960.40;61.85;;;;;;;4.83;100.00;92589.41;4908835;29;20138;-91